sensor_id;sensor_type;location;lat;lon;timestamp;pressure;altitude;pressure_sealevel;temperature;humidity
10881;BME280;5493;48.884;8.338;2023-03-01T00:02:13;101093.84;;;0.68;100.00
10881;BME280;5493;48.884;8.338;2023-03-01T00:04:40;101098.88;;;0.71;100.00
10881;BME280;5493;48.884;8.338;2023-03-01T00:07:06;101093.44;;;0.82;100.00
10881;BME280;5493;48.884;8.338;2023-03-01T00:09:35;101086.50;;;0.90;100.00
10881;BME280;5493;48.884;8.338;2023-03-01T00:12:02;101092.59;;;0.81;100.00
10881;BME280;5493;48.884;8.338;2023-03-01T00:14:29;101091.47;;;0.74;100.00
10881;BME280;5493;48.884;8.338;2023-03-01T00:16:56;101099.44;;;0.84;100.00
10881;BME280;5493;48.884;8.338;2023-03-01T00:19:22;101096.66;;;0.76;100.00
10881;BME280;5493;48.884;8.338;2023-03-01T00:21:49;101091.63;;;0.82;100.00
10881;BME280;5493;48.884;8.338;2023-03-01T00:24:15;101100.56;;;0.72;100.00
10881;BME280;5493;48.884;8.338;2023-03-01T00:26:43;101095.81;;;0.85;100.00
10881;BME280;5493;48.884;8.338;2023-03-01T00:29:10;101096.66;;;0.76;100.00
10881;BME280;5493;48.884;8.338;2023-03-01T00:31:36;101094.81;;;0.67;100.00
10881;BME280;5493;48.884;8.338;2023-03-01T00:34:04;101096.91;;;0.63;100.00
10881;BME280;5493;48.884;8.338;2023-03-01T00:36:33;101087.81;;;0.66;100.00
10881;BME280;5493;48.884;8.338;2023-03-01T00:39:00;101091.47;;;0.74;100.00
10881;BME280;5493;48.884;8.338;2023-03-01T00:41:27;101095.78;;;0.66;100.00
10881;BME280;5493;48.884;8.338;2023-03-01T00:43:55;101099.72;;;0.71;100.00
10881;BME280;5493;48.884;8.338;2023-03-01T00:46:24;101100.13;;;0.76;100.00
10881;BME280;5493;48.884;8.338;2023-03-01T00:48:52;101099.31;;;0.76;100.00
10881;BME280;5493;48.884;8.338;2023-03-01T00:51:20;101096.38;;;0.79;100.00
10881;BME280;5493;48.884;8.338;2023-03-01T00:53:49;101102.09;;;0.84;100.00
10881;BME280;5493;48.884;8.338;2023-03-01T00:56:17;101105.25;;;0.59;100.00
10881;BME280;5493;48.884;8.338;2023-03-01T00:58:43;101097.13;;;0.90;100.00
10881;BME280;5493;48.884;8.338;2023-03-01T01:01:13;101100.78;;;0.59;100.00
10881;BME280;5493;48.884;8.338;2023-03-01T01:03:44;101093.00;;;0.58;100.00
10881;BME280;5493;48.884;8.338;2023-03-01T01:06:16;101090.22;;;0.69;100.00
10881;BME280;5493;48.884;8.338;2023-03-01T01:08:43;101082.38;;;0.67;100.00
10881;BME280;5493;48.884;8.338;2023-03-01T01:11:10;101081.09;;;0.52;100.00
10881;BME280;5493;48.884;8.338;2023-03-01T01:13:38;101080.66;;;0.47;100.00
10881;BME280;5493;48.884;8.338;2023-03-01T01:16:06;101084.69;;;0.51;100.00
10881;BME280;5493;48.884;8.338;2023-03-01T01:18:34;101088.31;;;0.40;100.00
10881;BME280;5493;48.884;8.338;2023-03-01T01:21:05;101086.22;;;0.44;100.00
10881;BME280;5493;48.884;8.338;2023-03-01T01:23:32;101081.94;;;0.53;100.00
10881;BME280;5493;48.884;8.338;2023-03-01T01:26:03;101079.66;;;0.38;100.00
10881;BME280;5493;48.884;8.338;2023-03-01T01:28:30;101084.66;;;0.32;100.00
10881;BME280;5493;48.884;8.338;2023-03-01T01:30:56;101079.34;;;0.32;100.00
10881;BME280;5493;48.884;8.338;2023-03-01T01:33:23;101086.28;;;0.23;100.00
10881;BME280;5493;48.884;8.338;2023-03-01T01:35:51;101074.81;;;0.53;100.00
10881;BME280;5493;48.884;8.338;2023-03-01T01:38:17;101067.91;;;0.31;100.00
10881;BME280;5493;48.884;8.338;2023-03-01T01:40:44;101069.78;;;0.10;100.00
10881;BME280;5493;48.884;8.338;2023-03-01T01:43:17;101064.38;;;0.21;100.00
10881;BME280;5493;48.884;8.338;2023-03-01T01:45:45;101058.50;;;0.18;100.00
10881;BME280;5493;48.884;8.338;2023-03-01T01:48:14;101061.31;;;0.26;100.00
10881;BME280;5493;48.884;8.338;2023-03-01T01:50:42;101054.66;;;0.31;100.00
10881;BME280;5493;48.884;8.338;2023-03-01T01:53:13;101055.53;;;0.11;100.00
10881;BME280;5493;48.884;8.338;2023-03-01T01:55:45;101059.19;;;0.10;100.00
10881;BME280;5493;48.884;8.338;2023-03-01T01:58:16;101058.34;;;0.10;100.00
10881;BME280;5493;48.884;8.338;2023-03-01T02:00:44;101048.44;;;0.12;100.00
10881;BME280;5493;48.884;8.338;2023-03-01T02:03:13;101048.72;;;0.18;100.00
10881;BME280;5493;48.884;8.338;2023-03-01T02:05:47;101040.66;;;0.20;100.00
10881;BME280;5493;48.884;8.338;2023-03-01T02:08:19;101039.97;;;0.27;100.00
10881;BME280;5493;48.884;8.338;2023-03-01T02:10:48;101038.22;;;0.47;100.00
10881;BME280;5493;48.884;8.338;2023-03-01T02:13:15;101030.63;;;0.33;100.00
10881;BME280;5493;48.884;8.338;2023-03-01T02:15:42;101036.78;;;0.33;100.00
10881;BME280;5493;48.884;8.338;2023-03-01T02:18:12;101032.28;;;0.24;100.00
10881;BME280;5493;48.884;8.338;2023-03-01T02:20:45;101034.38;;;0.21;100.00
10881;BME280;5493;48.884;8.338;2023-03-01T02:23:15;101026.13;;;0.14;100.00
10881;BME280;5493;48.884;8.338;2023-03-01T02:25:47;101023.06;;;0.19;100.00
10881;BME280;5493;48.884;8.338;2023-03-01T02:28:30;101020.41;;;0.19;100.00
10881;BME280;5493;48.884;8.338;2023-03-01T02:30:57;101019.41;;;0.10;100.00
10881;BME280;5493;48.884;8.338;2023-03-01T02:33:43;101009.09;;;0.17;100.00
10881;BME280;5493;48.884;8.338;2023-03-01T02:36:12;101005.28;;;0.49;100.00
10881;BME280;5493;48.884;8.338;2023-03-01T02:38:41;101003.53;;;0.20;100.00
10881;BME280;5493;48.884;8.338;2023-03-01T02:41:08;101000.59;;;0.13;100.00
10881;BME280;5493;48.884;8.338;2023-03-01T02:43:38;100997.44;;;0.29;100.00
10881;BME280;5493;48.884;8.338;2023-03-01T02:46:06;100997.94;;;0.23;100.00
10881;BME280;5493;48.884;8.338;2023-03-01T02:48:41;100995.06;;;0.35;100.00
10881;BME280;5493;48.884;8.338;2023-03-01T02:51:16;100992.53;;;0.34;100.00
10881;BME280;5493;48.884;8.338;2023-03-01T02:53:53;100996.13;;;0.23;100.00
10881;BME280;5493;48.884;8.338;2023-03-01T02:56:21;100983.25;;;0.09;100.00
10881;BME280;5493;48.884;8.338;2023-03-01T02:58:49;100991.38;;;0.17;100.00
10881;BME280;5493;48.884;8.338;2023-03-01T03:01:17;100987.88;;;0.17;100.00
10881;BME280;5493;48.884;8.338;2023-03-01T03:03:43;100988.31;;;0.22;100.00
10881;BME280;5493;48.884;8.338;2023-03-01T03:06:10;100981.88;;;0.15;100.00
10881;BME280;5493;48.884;8.338;2023-03-01T03:08:36;100980.88;;;0.06;100.00
10881;BME280;5493;48.884;8.338;2023-03-01T03:11:03;100978.78;;;0.00;100.00
10881;BME280;5493;48.884;8.338;2023-03-01T03:13:30;100978.66;;;0.11;100.00
10881;BME280;5493;48.884;8.338;2023-03-01T03:15:58;100978.19;;;-0.04;100.00
10881;BME280;5493;48.884;8.338;2023-03-01T03:18:25;100975.03;;;0.03;100.00
10881;BME280;5493;48.884;8.338;2023-03-01T03:20:52;100971.25;;;0.05;100.00
10881;BME280;5493;48.884;8.338;2023-03-01T03:23:19;100967.03;;;-0.07;100.00
10881;BME280;5493;48.884;8.338;2023-03-01T03:25:48;100972.38;;;0.03;100.00
10881;BME280;5493;48.884;8.338;2023-03-01T03:28:15;100970.38;;;-0.05;100.00
10881;BME280;5493;48.884;8.338;2023-03-01T03:30:42;100967.03;;;-0.07;100.00
10881;BME280;5493;48.884;8.338;2023-03-01T03:33:11;100964.78;;;-0.12;100.00
10881;BME280;5493;48.884;8.338;2023-03-01T03:35:42;100963.94;;;-0.12;100.00
10881;BME280;5493;48.884;8.338;2023-03-01T03:38:11;100961.41;;;-0.14;100.00
10881;BME280;5493;48.884;8.338;2023-03-01T03:40:43;100959.03;;;-0.17;100.00
10881;BME280;5493;48.884;8.338;2023-03-01T03:43:11;100952.38;;;-0.11;100.00
10881;BME280;5493;48.884;8.338;2023-03-01T03:45:38;100955.53;;;-0.27;100.00
10881;BME280;5493;48.884;8.338;2023-03-01T03:48:06;100949.28;;;-0.16;100.00
10881;BME280;5493;48.884;8.338;2023-03-01T03:50:35;100957.06;;;-0.24;100.00
10881;BME280;5493;48.884;8.338;2023-03-01T03:53:03;100949.94;;;-0.33;100.00
10881;BME280;5493;48.884;8.338;2023-03-01T03:55:30;100949.72;;;-0.11;100.00
10881;BME280;5493;48.884;8.338;2023-03-01T03:57:59;100945.94;;;-0.18;100.00
10881;BME280;5493;48.884;8.338;2023-03-01T04:00:28;100939.91;;;-0.30;100.00
10881;BME280;5493;48.884;8.338;2023-03-01T04:02:54;100947.91;;;-0.11;100.00
10881;BME280;5493;48.884;8.338;2023-03-01T04:05:21;100933.19;;;-0.34;100.00
10881;BME280;5493;48.884;8.338;2023-03-01T04:07:49;100935.38;;;-0.39;100.00
10881;BME280;5493;48.884;8.338;2023-03-01T04:10:27;100931.84;;;-0.19;100.00
10881;BME280;5493;48.884;8.338;2023-03-01T04:12:54;100936.59;;;-0.13;100.00
10881;BME280;5493;48.884;8.338;2023-03-01T04:15:23;100939.63;;;-0.27;100.00
10881;BME280;5493;48.884;8.338;2023-03-01T04:17:50;100937.56;;;-0.23;100.00
10881;BME280;5493;48.884;8.338;2023-03-01T04:20:20;100927.91;;;-0.24;100.00
10881;BME280;5493;48.884;8.338;2023-03-01T04:22:53;100925.09;;;-0.32;100.00
10881;BME280;5493;48.884;8.338;2023-03-01T04:25:22;100918.28;;;-0.25;100.00
10881;BME280;5493;48.884;8.338;2023-03-01T04:27:49;100915.34;;;-0.32;100.00
10881;BME280;5493;48.884;8.338;2023-03-01T04:30:16;100911.84;;;-0.32;100.00
10881;BME280;5493;48.884;8.338;2023-03-01T04:32:42;100914.84;;;-0.16;100.00
10881;BME280;5493;48.884;8.338;2023-03-01T04:35:09;100906.91;;;-0.07;100.00
10881;BME280;5493;48.884;8.338;2023-03-01T04:37:36;100903.41;;;-0.07;100.00
10881;BME280;5493;48.884;8.338;2023-03-01T04:40:04;100911.78;;;-0.12;100.00
10881;BME280;5493;48.884;8.338;2023-03-01T04:42:40;100911.34;;;-0.26;100.00
10881;BME280;5493;48.884;8.338;2023-03-01T04:45:08;100911.50;;;-0.09;100.00
10881;BME280;5493;48.884;8.338;2023-03-01T04:47:38;100907.00;;;-0.18;100.00
10881;BME280;5493;48.884;8.338;2023-03-01T04:50:06;100914.00;;;-0.07;100.00
10881;BME280;5493;48.884;8.338;2023-03-01T04:52:33;100909.41;;;-0.15;100.00
10881;BME280;5493;48.884;8.338;2023-03-01T04:55:00;100914.38;;;-0.31;100.00
10881;BME280;5493;48.884;8.338;2023-03-01T04:57:28;100913.44;;;-0.11;100.00
10881;BME280;5493;48.884;8.338;2023-03-01T04:59:54;100917.59;;;-0.27;100.00
10881;BME280;5493;48.884;8.338;2023-03-01T05:02:21;100912.69;;;-0.32;100.00
10881;BME280;5493;48.884;8.338;2023-03-01T05:04:47;100919.56;;;-0.29;100.00
10881;BME280;5493;48.884;8.338;2023-03-01T05:07:14;100920.13;;;-0.16;100.00
10881;BME280;5493;48.884;8.338;2023-03-01T05:09:45;100923.25;;;-0.11;100.00
10881;BME280;5493;48.884;8.338;2023-03-01T05:12:12;100920.47;;;0.00;100.00
10881;BME280;5493;48.884;8.338;2023-03-01T05:14:40;100921.97;;;-0.07;100.00
10881;BME280;5493;48.884;8.338;2023-03-01T05:17:07;100909.84;;;-0.10;100.00
10881;BME280;5493;48.884;8.338;2023-03-01T05:19:34;100908.59;;;0.04;100.00
10881;BME280;5493;48.884;8.338;2023-03-01T05:22:01;100913.72;;;-0.14;100.00
10881;BME280;5493;48.884;8.338;2023-03-01T05:24:32;100919.28;;;-0.17;100.00
10881;BME280;5493;48.884;8.338;2023-03-01T05:26:59;100914.56;;;-0.13;100.00
10881;BME280;5493;48.884;8.338;2023-03-01T05:29:28;100919.44;;;-0.18;100.00
10881;BME280;5493;48.884;8.338;2023-03-01T05:31:58;100917.50;;;-0.16;100.00
10881;BME280;5493;48.884;8.338;2023-03-01T05:34:26;100917.63;;;-0.18;100.00
10881;BME280;5493;48.884;8.338;2023-03-01T05:36:53;100917.75;;;-0.19;100.00
10881;BME280;5493;48.884;8.338;2023-03-01T05:39:21;100917.09;;;-0.12;100.00
10881;BME280;5493;48.884;8.338;2023-03-01T05:41:48;100916.25;;;-0.12;100.00
10881;BME280;5493;48.884;8.338;2023-03-01T05:44:15;100916.22;;;-0.22;100.00
10881;BME280;5493;48.884;8.338;2023-03-01T05:46:41;100916.81;;;-0.09;100.00
10881;BME280;5493;48.884;8.338;2023-03-01T05:49:09;100916.81;;;-0.18;100.00
10881;BME280;5493;48.884;8.338;2023-03-01T05:51:35;100917.59;;;-0.27;100.00
10881;BME280;5493;48.884;8.338;2023-03-01T05:54:02;100922.88;;;-0.37;100.00
10881;BME280;5493;48.884;8.338;2023-03-01T05:56:32;100918.66;;;-0.39;100.00
10881;BME280;5493;48.884;8.338;2023-03-01T05:58:58;100913.44;;;-0.51;100.00
10881;BME280;5493;48.884;8.338;2023-03-01T06:01:25;100915.34;;;-0.32;100.00
10881;BME280;5493;48.884;8.338;2023-03-01T06:03:51;100921.63;;;-0.33;100.00
10881;BME280;5493;48.884;8.338;2023-03-01T06:06:19;100914.94;;;-0.27;100.00
10881;BME280;5493;48.884;8.338;2023-03-01T06:08:46;100920.91;;;-0.35;100.00
10881;BME280;5493;48.884;8.338;2023-03-01T06:11:12;100926.41;;;-0.17;100.00
10881;BME280;5493;48.884;8.338;2023-03-01T06:13:39;100912.94;;;-0.05;100.00
10881;BME280;5493;48.884;8.338;2023-03-01T06:16:07;100919.97;;;-0.24;100.00
10881;BME280;5493;48.884;8.338;2023-03-01T06:18:34;100920.69;;;-0.22;100.00
10881;BME280;5493;48.884;8.338;2023-03-01T06:21:01;100922.91;;;-0.27;100.00
10881;BME280;5493;48.884;8.338;2023-03-01T06:23:30;100924.19;;;-0.22;100.00
10881;BME280;5493;48.884;8.338;2023-03-01T06:25:56;100920.81;;;-0.24;100.00
10881;BME280;5493;48.884;8.338;2023-03-01T06:28:23;100911.84;;;-0.32;100.00
10881;BME280;5493;48.884;8.338;2023-03-01T06:30:49;100920.97;;;-0.16;100.00
10881;BME280;5493;48.884;8.338;2023-03-01T06:33:17;100919.03;;;-0.14;100.00
10881;BME280;5493;48.884;8.338;2023-03-01T06:35:45;100922.22;;;-0.20;100.00
10881;BME280;5493;48.884;8.338;2023-03-01T06:38:12;100919.19;;;-0.06;100.00
10881;BME280;5493;48.884;8.338;2023-03-01T06:40:41;100927.16;;;-0.06;100.00
10881;BME280;5493;48.884;8.338;2023-03-01T06:43:07;100924.63;;;-0.07;100.00
10881;BME280;5493;48.884;8.338;2023-03-01T06:45:34;100921.28;;;0.00;100.00
10881;BME280;5493;48.884;8.338;2023-03-01T06:48:04;100910.13;;;-0.03;100.00
10881;BME280;5493;48.884;8.338;2023-03-01T06:50:31;100909.28;;;-0.04;100.00
10881;BME280;5493;48.884;8.338;2023-03-01T06:52:57;100911.69;;;-0.01;100.00
10881;BME280;5493;48.884;8.338;2023-03-01T06:55:24;100910.56;;;-0.08;100.00
10881;BME280;5493;48.884;8.338;2023-03-01T06:57:55;100910.09;;;-0.13;100.00
10881;BME280;5493;48.884;8.338;2023-03-01T07:00:23;100902.50;;;0.04;100.00
10881;BME280;5493;48.884;8.338;2023-03-01T07:02:50;100905.53;;;0.18;100.00
10881;BME280;5493;48.884;8.338;2023-03-01T07:05:16;100903.00;;;-0.03;100.00
10881;BME280;5493;48.884;8.338;2023-03-01T07:07:43;100896.34;;;0.03;100.00
10881;BME280;5493;48.884;8.338;2023-03-01T07:10:10;100898.72;;;0.16;100.00
10881;BME280;5493;48.884;8.338;2023-03-01T07:12:37;100884.91;;;0.41;100.00
10881;BME280;5493;48.884;8.338;2023-03-01T07:15:08;100890.19;;;0.12;100.00
10881;BME280;5493;48.884;8.338;2023-03-01T07:17:35;100887.69;;;0.30;100.00
10881;BME280;5493;48.884;8.338;2023-03-01T07:20:02;100885.91;;;0.30;100.00
10881;BME280;5493;48.884;8.338;2023-03-01T07:22:28;100887.72;;;0.20;100.00
10881;BME280;5493;48.884;8.338;2023-03-01T07:24:55;100877.53;;;0.25;100.00
10881;BME280;5493;48.884;8.338;2023-03-01T07:27:21;100881.56;;;0.39;100.00
10881;BME280;5493;48.884;8.338;2023-03-01T07:29:48;100875.00;;;0.53;100.00
10881;BME280;5493;48.884;8.338;2023-03-01T07:32:15;100870.41;;;0.64;100.00
10881;BME280;5493;48.884;8.338;2023-03-01T07:34:42;100879.47;;;0.62;100.00
10881;BME280;5493;48.884;8.338;2023-03-01T07:37:08;100876.53;;;0.65;100.00
10881;BME280;5493;48.884;8.338;2023-03-01T07:39:35;100876.53;;;0.74;100.00
10881;BME280;5493;48.884;8.338;2023-03-01T07:42:01;100871.91;;;0.86;100.00
10881;BME280;5493;48.884;8.338;2023-03-01T07:44:28;100862.97;;;0.77;100.00
10881;BME280;5493;48.884;8.338;2023-03-01T07:46:54;100870.09;;;0.86;100.00
10881;BME280;5493;48.884;8.338;2023-03-01T07:49:24;100868.94;;;0.89;100.00
10881;BME280;5493;48.884;8.338;2023-03-01T07:51:52;100868.47;;;1.13;100.00
10881;BME280;5493;48.884;8.338;2023-03-01T07:54:19;100871.28;;;1.11;100.00
10881;BME280;5493;48.884;8.338;2023-03-01T07:56:45;100863.94;;;1.32;100.00
10881;BME280;5493;48.884;8.338;2023-03-01T07:59:12;100864.03;;;1.40;100.00
10881;BME280;5493;48.884;8.338;2023-03-01T08:01:38;100860.69;;;1.38;100.00
10881;BME280;5493;48.884;8.338;2023-03-01T08:04:05;100858.13;;;1.46;100.00
10881;BME280;5493;48.884;8.338;2023-03-01T08:06:35;100863.84;;;1.52;100.00
10881;BME280;5493;48.884;8.338;2023-03-01T08:09:02;100852.94;;;1.45;100.00
10881;BME280;5493;48.884;8.338;2023-03-01T08:11:29;100855.59;;;1.45;100.00
10881;BME280;5493;48.884;8.338;2023-03-01T08:13:55;100847.13;;;1.69;100.00
10881;BME280;5493;48.884;8.338;2023-03-01T08:16:23;100854.50;;;1.92;100.00
10881;BME280;5493;48.884;8.338;2023-03-01T08:18:49;100846.06;;;1.79;100.00
10881;BME280;5493;48.884;8.338;2023-03-01T08:21:17;100847.38;;;1.93;100.00
10881;BME280;5493;48.884;8.338;2023-03-01T08:23:45;100843.88;;;1.92;100.00
10881;BME280;5493;48.884;8.338;2023-03-01T08:26:14;100839.03;;;2.23;100.00
10881;BME280;5493;48.884;8.338;2023-03-01T08:28:41;100833.72;;;2.06;100.00
10881;BME280;5493;48.884;8.338;2023-03-01T08:31:17;100838.13;;;2.32;100.00
10881;BME280;5493;48.884;8.338;2023-03-01T08:33:44;100837.53;;;2.38;100.00
10881;BME280;5493;48.884;8.338;2023-03-01T08:36:16;100833.63;;;2.51;100.00
10881;BME280;5493;48.884;8.338;2023-03-01T08:38:42;100839.88;;;2.41;100.00
10881;BME280;5493;48.884;8.338;2023-03-01T08:41:10;100830.78;;;2.70;100.00
10881;BME280;5493;48.884;8.338;2023-03-01T08:43:36;100837.19;;;2.59;100.00
10881;BME280;5493;48.884;8.338;2023-03-01T08:46:03;100839.34;;;2.81;100.00
10881;BME280;5493;48.884;8.338;2023-03-01T08:48:30;100830.06;;;2.85;100.00
10881;BME280;5493;48.884;8.338;2023-03-01T08:50:56;100826.63;;;2.75;100.00
10881;BME280;5493;48.884;8.338;2023-03-01T08:53:23;100832.16;;;3.00;100.00
10881;BME280;5493;48.884;8.338;2023-03-01T08:55:49;100832.66;;;3.03;100.00
10881;BME280;5493;48.884;8.338;2023-03-01T08:58:17;100816.16;;;3.00;100.00
10881;BME280;5493;48.884;8.338;2023-03-01T09:00:43;100816.72;;;3.11;100.00
10881;BME280;5493;48.884;8.338;2023-03-01T09:03:10;100803.38;;;3.03;100.00
10881;BME280;5493;48.884;8.338;2023-03-01T09:05:36;100794.69;;;3.35;100.00
10881;BME280;5493;48.884;8.338;2023-03-01T09:08:03;100799.28;;;3.17;100.00
10881;BME280;5493;48.884;8.338;2023-03-01T09:10:30;100797.38;;;3.43;100.00
10881;BME280;5493;48.884;8.338;2023-03-01T09:12:56;100790.91;;;3.45;100.00
10881;BME280;5493;48.884;8.338;2023-03-01T09:15:24;100789.56;;;3.50;100.00
10881;BME280;5493;48.884;8.338;2023-03-01T09:17:51;100788.13;;;3.63;100.00
10881;BME280;5493;48.884;8.338;2023-03-01T09:20:18;100787.63;;;3.68;100.00
10881;BME280;5493;48.884;8.338;2023-03-01T09:22:44;100790.78;;;3.63;100.00
10881;BME280;5493;48.884;8.338;2023-03-01T09:25:11;100785.69;;;4.02;100.00
10881;BME280;5493;48.884;8.338;2023-03-01T09:27:37;100789.16;;;3.94;100.00
10881;BME280;5493;48.884;8.338;2023-03-01T09:30:05;100785.72;;;4.18;100.00
10881;BME280;5493;48.884;8.338;2023-03-01T09:32:33;100789.38;;;4.17;100.00
10881;BME280;5493;48.884;8.338;2023-03-01T09:34:59;100792.53;;;4.21;100.00
10881;BME280;5493;48.884;8.338;2023-03-01T09:37:30;100782.22;;;4.18;100.00
10881;BME280;5493;48.884;8.338;2023-03-01T09:39:57;100779.88;;;4.23;100.00
10881;BME280;5493;48.884;8.338;2023-03-01T09:42:24;100775.84;;;4.27;100.00
10881;BME280;5493;48.884;8.338;2023-03-01T09:44:55;100772.69;;;4.39;100.00
10881;BME280;5493;48.884;8.338;2023-03-01T09:47:26;100767.19;;;4.25;100.00
10881;BME280;5493;48.884;8.338;2023-03-01T09:50:02;100770.88;;;4.40;100.00
10881;BME280;5493;48.884;8.338;2023-03-01T09:52:35;100761.69;;;4.59;100.00
10881;BME280;5493;48.884;8.338;2023-03-01T09:55:08;100766.53;;;4.47;100.00
10881;BME280;5493;48.884;8.338;2023-03-01T09:57:43;100760.16;;;4.64;100.00
10881;BME280;5493;48.884;8.338;2023-03-01T10:00:30;100766.69;;;4.54;100.00
10881;BME280;5493;48.884;8.338;2023-03-01T10:03:04;100759.47;;;4.70;100.00
10881;BME280;5493;48.884;8.338;2023-03-01T10:05:43;100751.41;;;4.94;100.00
10881;BME280;5493;48.884;8.338;2023-03-01T10:08:25;100750.78;;;4.84;100.00
10881;BME280;5493;48.884;8.338;2023-03-01T10:10:54;100754.44;;;4.83;100.00
10881;BME280;5493;48.884;8.338;2023-03-01T10:13:24;100744.50;;;5.16;100.00
10881;BME280;5493;48.884;8.338;2023-03-01T10:15:55;100748.91;;;4.85;100.00
10881;BME280;5493;48.884;8.338;2023-03-01T10:18:26;100746.31;;;5.16;100.00
10881;BME280;5493;48.884;8.338;2023-03-01T10:20:57;100736.81;;;5.44;100.00
10881;BME280;5493;48.884;8.338;2023-03-01T10:23:25;100730.03;;;5.33;100.00
10881;BME280;5493;48.884;8.338;2023-03-01T10:26:05;100732.66;;;5.41;100.00
10881;BME280;5493;48.884;8.338;2023-03-01T10:28:44;100725.22;;;5.60;100.00
10881;BME280;5493;48.884;8.338;2023-03-01T10:31:15;100729.75;;;5.51;100.00
10881;BME280;5493;48.884;8.338;2023-03-01T10:33:44;100726.16;;;5.67;100.00
10881;BME280;5493;48.884;8.338;2023-03-01T10:36:14;100730.41;;;5.84;100.00
10881;BME280;5493;48.884;8.338;2023-03-01T10:38:48;100730.22;;;5.85;100.00
10881;BME280;5493;48.884;8.338;2023-03-01T10:41:17;100726.44;;;5.72;100.00
10881;BME280;5493;48.884;8.338;2023-03-01T10:43:46;100718.78;;;6.00;100.00
10881;BME280;5493;48.884;8.338;2023-03-01T10:46:24;100715.75;;;6.03;100.00
10881;BME280;5493;48.884;8.338;2023-03-01T10:49:06;100722.81;;;6.18;100.00
10881;BME280;5493;48.884;8.338;2023-03-01T10:51:34;100724.59;;;6.03;100.00
10881;BME280;5493;48.884;8.338;2023-03-01T10:54:02;100720.03;;;6.26;100.00
10881;BME280;5493;48.884;8.338;2023-03-01T10:56:45;100697.47;;;6.43;100.00
10881;BME280;5493;48.884;8.338;2023-03-01T10:59:22;100700.31;;;6.42;100.00
10881;BME280;5493;48.884;8.338;2023-03-01T11:02:03;100706.13;;;6.31;100.00
10881;BME280;5493;48.884;8.338;2023-03-01T11:04:29;100693.41;;;6.33;100.00
10881;BME280;5493;48.884;8.338;2023-03-01T11:07:01;100684.28;;;6.71;100.00
10881;BME280;5493;48.884;8.338;2023-03-01T11:09:32;100687.81;;;7.37;94.65
10881;BME280;5493;48.884;8.338;2023-03-01T11:12:04;100684.81;;;7.47;92.72
10881;BME280;5493;48.884;8.338;2023-03-01T11:14:34;100682.78;;;8.12;85.15
10881;BME280;5493;48.884;8.338;2023-03-01T11:17:04;100679.88;;;8.63;84.33
10881;BME280;5493;48.884;8.338;2023-03-01T11:19:31;100667.84;;;8.59;78.06
10881;BME280;5493;48.884;8.338;2023-03-01T11:22:02;100665.50;;;8.83;77.52
10881;BME280;5493;48.884;8.338;2023-03-01T11:24:34;100655.97;;;8.74;76.26
10881;BME280;5493;48.884;8.338;2023-03-01T11:27:17;100653.66;;;9.12;72.40
10881;BME280;5493;48.884;8.338;2023-03-01T11:29:46;100648.78;;;9.42;71.11
10881;BME280;5493;48.884;8.338;2023-03-01T11:32:17;100641.19;;;9.78;68.78
10881;BME280;5493;48.884;8.338;2023-03-01T11:34:49;100641.41;;;10.10;66.53
10881;BME280;5493;48.884;8.338;2023-03-01T11:37:28;100640.72;;;9.55;65.88
10881;BME280;5493;48.884;8.338;2023-03-01T11:40:05;100624.47;;;10.16;64.93
10881;BME280;5493;48.884;8.338;2023-03-01T11:42:45;100624.63;;;10.41;63.84
10881;BME280;5493;48.884;8.338;2023-03-01T11:45:13;100616.78;;;10.13;65.32
10881;BME280;5493;48.884;8.338;2023-03-01T11:48:07;100614.06;;;10.06;63.00
10881;BME280;5493;48.884;8.338;2023-03-01T11:50:41;100613.78;;;10.60;62.41
10881;BME280;5493;48.884;8.338;2023-03-01T11:53:36;100607.38;;;11.12;58.88
10881;BME280;5493;48.884;8.338;2023-03-01T11:56:18;100613.50;;;10.88;60.29
10881;BME280;5493;48.884;8.338;2023-03-01T11:59:11;100601.16;;;11.12;60.32
10881;BME280;5493;48.884;8.338;2023-03-01T12:01:58;100595.19;;;10.97;58.96
10881;BME280;5493;48.884;8.338;2023-03-01T12:04:54;100593.63;;;10.76;58.80
10881;BME280;5493;48.884;8.338;2023-03-01T12:07:33;100589.94;;;11.08;58.50
10881;BME280;5493;48.884;8.338;2023-03-01T12:10:21;100581.72;;;11.34;58.50
10881;BME280;5493;48.884;8.338;2023-03-01T12:12:58;100585.44;;;11.33;57.52
10881;BME280;5493;48.884;8.338;2023-03-01T12:18:43;100572.53;;;11.73;57.27
10881;BME280;5493;48.884;8.338;2023-03-01T12:21:24;100558.91;;;11.30;56.98
10881;BME280;5493;48.884;8.338;2023-03-01T12:24:10;100566.16;;;10.99;56.45
10881;BME280;5493;48.884;8.338;2023-03-01T12:26:52;100567.00;;;11.30;56.34
10881;BME280;5493;48.884;8.338;2023-03-01T12:29:25;100560.81;;;11.23;56.87
10881;BME280;5493;48.884;8.338;2023-03-01T12:32:06;100548.50;;;11.59;55.41
10881;BME280;5493;48.884;8.338;2023-03-01T12:34:59;100555.31;;;11.36;56.25
10881;BME280;5493;48.884;8.338;2023-03-01T12:37:36;100546.28;;;10.86;55.70
10881;BME280;5493;48.884;8.338;2023-03-01T12:40:16;100537.00;;;11.45;55.93
10881;BME280;5493;48.884;8.338;2023-03-01T12:42:56;100535.78;;;11.41;55.77
10881;BME280;5493;48.884;8.338;2023-03-01T12:45:46;100526.06;;;11.33;55.45
10881;BME280;5493;48.884;8.338;2023-03-01T12:48:24;100526.91;;;11.34;55.21
10881;BME280;5493;48.884;8.338;2023-03-01T12:50:57;100524.84;;;11.86;54.29
10881;BME280;5493;48.884;8.338;2023-03-01T12:53:27;100527.22;;;11.44;55.98
10881;BME280;5493;48.884;8.338;2023-03-01T12:55:56;100524.78;;;11.67;57.35
10881;BME280;5493;48.884;8.338;2023-03-01T12:58:31;100529.16;;;11.37;55.18
10881;BME280;5493;48.884;8.338;2023-03-01T13:01:15;100522.28;;;11.10;56.39
10881;BME280;5493;48.884;8.338;2023-03-01T13:03:56;100523.41;;;12.26;56.89
10881;BME280;5493;48.884;8.338;2023-03-01T13:06:32;100524.09;;;11.47;55.13
10881;BME280;5493;48.884;8.338;2023-03-01T13:09:08;100529.13;;;10.68;56.11
10881;BME280;5493;48.884;8.338;2023-03-01T13:11:41;100522.19;;;11.23;56.26
10881;BME280;5493;48.884;8.338;2023-03-01T13:14:37;100515.22;;;11.09;56.93
10881;BME280;5493;48.884;8.338;2023-03-01T13:17:32;100510.72;;;10.58;57.66